Dades meteomassalio
Diari Summary for Gener 27, 2017 Units:  English    Metric   Both
« Previous Day
Next Day »
Diari Semanal Mensual Anual Personalitzat
  Maxima: Minima: Mijana:
Temperatura: 54.9 °F 41.7 °F 47.8 °F
Rosada: 48 °F 36.9 °F 42.8 °F
Humitat: 92 % 67 % 83 %
Velocitat del vent: 17.3 mph 0 mph 3.2 mph
Racha vent: 17.3 mph - -
Vent:- - SSE
Pressio: 30 in 29.8 in -
Pluja: 0.02 in    
Historical Graphs
 
 
Tabular Data for Gener 27, 2017
Time Temperature Dew Point Pressure Wind Wind Speed Wind Gust Humidity Rainfall Rate (Hourly) solar Conditions
00:02 43.7 °F 38.3 °F 30 in ESE 3.5 mph   81 % 0 in 0.0 W/m2 CLR
00:07 43.5 °F 38.1 °F 30 in Calm     81 % 0 in 0.0 W/m2 CLR
00:12 43.5 °F 38.1 °F 30 in Calm     81 % 0 in 0.0 W/m2 CLR
00:17 43.2 °F 37.8 °F 30 in Calm     81 % 0 in 0.0 W/m2 CLR
00:22 43.2 °F 37.8 °F 30 in Calm     81 % 0 in 0.0 W/m2 CLR
00:27 43.2 °F 38.1 °F 30 in ESE 2.3 mph 2.3 mph 82 % 0 in 0.0 W/m2 CLR
00:32 43.5 °F 38.5 °F 30 in ESE 4 mph 4 mph 82 % 0 in 0.0 W/m2 CLR
00:37 44.1 °F 38.5 °F 30 in ESE 3.5 mph 3.5 mph 81 % 0 in 0.0 W/m2 CLR
00:42 44.1 °F 38.5 °F 30 in Calm     81 % 0 in 0.0 W/m2 CLR
00:48 43.9 °F 38.5 °F 30 in SE 2 mph 2 mph 81 % 0 in 0.0 W/m2 CLR
00:53 44.1 °F 38.5 °F 30 in SE 4.6 mph 4.6 mph 81 % 0 in 0.0 W/m2 CLR
00:58 44.2 °F 38.5 °F 30 in ESE 1.2 mph   80 % 0 in 0.0 W/m2 CLR
00:59 44.2 °F 38.1 °F 30 in Calm     79 % 0 in 0.0 W/m2 CLR
01:01 44.2 °F 38.1 °F 30 in Calm     79 % 0 in 0.0 W/m2 CLR
01:03 44.2 °F 38.1 °F 30 in Calm     79 % 0 in 0.0 W/m2 CLR
01:08 44.2 °F 38.1 °F 30 in Calm     79 % 0 in 0.0 W/m2 CLR
01:13 44.1 °F 38.1 °F 30 in Calm     80 % 0 in 0.0 W/m2 CLR
01:18 43.9 °F 37.9 °F 30 in Calm     80 % 0 in 0.0 W/m2 CLR
01:23 43.5 °F 37.8 °F 30 in Calm     80 % 0 in 0.0 W/m2 CLR
01:28 43.5 °F 38.1 °F 30 in ESE 4 mph 4 mph 81 % 0 in 0.0 W/m2 CLR
01:33 43.7 °F 37.9 °F 30 in Calm     80 % 0 in 0.0 W/m2 CLR
01:38 43.2 °F 37.4 °F 30 in Calm     80 % 0 in 0.0 W/m2 CLR
01:43 43.3 °F 37.9 °F 30 in Calm     81 % 0 in 0.0 W/m2 CLR
01:48 43 °F 37.6 °F 30 in Calm     81 % 0 in 0.0 W/m2 CLR
01:53 42.8 °F 37.4 °F 30 in Calm     81 % 0 in 0.0 W/m2 CLR
01:58 42.4 °F 37.4 °F 30 in Calm     82 % 0 in 0.0 W/m2 CLR
02:03 42.3 °F 37.2 °F 30 in Calm     82 % 0 in 0.0 W/m2 CLR
02:08 41.9 °F 36.9 °F 30 in Calm     82 % 0 in 0.0 W/m2 CLR
02:13 41.7 °F 37.2 °F 30 in Calm     84 % 0 in 0.0 W/m2 CLR
02:18 41.9 °F 37.4 °F 30 in Calm     84 % 0 in 0.0 W/m2 CLR
02:23 42.1 °F 37.2 °F 30 in Calm     83 % 0 in 0.0 W/m2 CLR
02:28 42.1 °F 37.6 °F 30 in Calm     84 % 0 in 0.0 W/m2 CLR
02:33 42.1 °F 37.6 °F 30 in Calm     84 % 0 in 0.0 W/m2 CLR
02:38 42.1 °F 37.6 °F 30 in Calm     84 % 0 in 0.0 W/m2 CLR
02:43 42.1 °F 37.6 °F 30 in Calm     84 % 0 in 0.0 W/m2 CLR
02:48 42.3 °F 37.8 °F 30 in Calm     84 % 0 in 0.0 W/m2 CLR
02:53 42.4 °F 37.9 °F 30 in Calm     84 % 0 in 0.0 W/m2 CLR
02:58 42.8 °F 37.9 °F 30 in Calm     83 % 0 in 0.0 W/m2 CLR
03:08 43.2 °F 38.3 °F 30 in Calm     83 % 0 in 0.0 W/m2 CLR
03:13 43.2 °F 38.5 °F 30 in Calm     83 % 0 in 0.0 W/m2 CLR
03:18 43.5 °F 38.7 °F 30 in Calm     83 % 0 in 0.0 W/m2 CLR
03:23 43.5 °F 38.8 °F 30 in Calm     83 % 0 in 0.0 W/m2 CLR
03:28 43.7 °F 39.2 °F 30 in Calm     84 % 0 in 0.0 W/m2 CLR
03:38 44.4 °F 39.6 °F 30 in Calm     83 % 0 in 0.0 W/m2 CLR
03:43 44.6 °F 39.7 °F 30 in Calm     83 % 0 in 0.0 W/m2 CLR
03:48 44.8 °F 39.9 °F 30 in Calm     83 % 0 in 0.0 W/m2 CLR
03:53 45 °F 40.1 °F 30 in Calm     83 % 0 in 0.0 W/m2 CLR
03:58 45.3 °F 40.5 °F 30 in East 3.5 mph 3.5 mph 83 % 0 in 0.0 W/m2 CLR
04:03 45.5 °F 40.6 °F 30 in ESE 2.3 mph 2.3 mph 83 % 0 in 0.0 W/m2 CLR
04:08 45.9 °F 40.8 °F 30 in ESE 11.5 mph 11.5 mph 83 % 0 in 0.0 W/m2 CLR
04:14 46.2 °F 41.4 °F 30 in ESE 4.6 mph 4.6 mph 83 % 0 in 0.0 W/m2 CLR
04:19 46.4 °F 41.2 °F 30 in East 1.2 mph   82 % 0 in 0.0 W/m2 CLR
04:24 46.2 °F 41.4 °F 30 in Calm     83 % 0 in 0.0 W/m2 CLR
04:25 46.4 °F 41.5 °F 30 in Calm     83 % 0 in 0.0 W/m2 CLR
04:30 46.2 °F 41.4 °F 30 in Calm   0.4 mph 83 % 0 in 0.0 W/m2 CLR
04:35 46 °F 41.5 °F 30 in Calm     84 % 0 in 0.0 W/m2 CLR
04:40 46 °F 41.5 °F 30 in Calm     84 % 0 in 0.0 W/m2 CLR
04:45 46 °F 41.7 °F 30 in Calm     85 % 0 in 0.0 W/m2 CLR
04:50 46 °F 41.7 °F 30 in Calm   0.5 mph 85 % 0 in 0.0 W/m2 CLR
04:55 45.9 °F 41.9 °F 30 in ENE 2.3 mph 2.3 mph 86 % 0 in 0.0 W/m2 CLR
05:00 45.9 °F 41.9 °F 30 in Calm     86 % 0 in 0.0 W/m2 CLR
05:05 45.7 °F 42.1 °F 30 in Calm     87 % 0 in 0.0 W/m2 CLR
05:10 45.7 °F 42.1 °F 30 in Calm     87 % 0 in 0.0 W/m2 CLR
05:15 45.7 °F 42.1 °F 30 in Calm     87 % 0 in 0.0 W/m2 CLR
05:20 45.5 °F 41.9 °F 30 in NE 2.3 mph   87 % 0 in 0.0 W/m2 CLR
05:25 45.3 °F 42.1 °F 30 in NE 4.6 mph 4.6 mph 88 % 0 in 0.0 W/m2 CLR
05:30 45.3 °F 42.1 °F 30 in Calm   1.9 mph 88 % 0 in 0.0 W/m2 CLR
05:35 45.3 °F 42.1 °F 30 in Calm     88 % 0 in 0.0 W/m2 CLR
05:40 45.3 °F 42.1 °F 30 in Calm     88 % 0 in 0.0 W/m2 CLR
05:45 45.9 °F 42.8 °F 30 in ESE 11.5 mph 11.5 mph 89 % 0 in 0.0 W/m2 CLR
05:50 46.6 °F 43.5 °F 30 in SE 6.9 mph 6.9 mph 89 % 0 in 0.0 W/m2 CLR
05:55 46.8 °F 43.3 °F 30 in SE 3 mph 3 mph 88 % 0 in 0.0 W/m2 CLR
06:00 46.8 °F 43.3 °F 30 in ESE 3.5 mph 3.5 mph 88 % 0 in 0.0 W/m2 CLR
06:05 46.9 °F 43.5 °F 30 in ESE 4 mph 4 mph 88 % 0 in 0.0 W/m2 CLR
06:10 46.9 °F 43.5 °F 30 in ESE 2.3 mph 2.3 mph 88 % 0 in 0.0 W/m2 CLR
06:15 46.8 °F 43.5 °F 30 in ESE 3.5 mph   89 % 0 in 0.0 W/m2 CLR
06:20 46.6 °F 43.5 °F 30 in ESE 5.8 mph 5.8 mph 89 % 0 in 0.0 W/m2 CLR
06:25 46.6 °F 43.7 °F 30 in ESE 5.8 mph 5.8 mph 90 % 0 in 0.0 W/m2 CLR
06:30 46.4 °F 43.5 °F 30 in ESE 3.5 mph 3.5 mph 90 % 0.01 in 0.0 W/m2 RA
06:35 46.2 °F 43.5 °F 30 in Calm     90 % 0.01 in 0.0 W/m2
06:40 46.2 °F 43.7 °F 30 in Calm     91 % 0.01 in 0.0 W/m2 CLR
06:45 46 °F 43.5 °F 30 in ESE 2.3 mph 2.3 mph 91 % 0.01 in 0.0 W/m2 CLR
06:50 46 °F 43.5 °F 30 in Calm     91 % 0.02 in 0.0 W/m2 RA
06:55 46 °F 43.5 °F 29.9 in Calm     91 % 0.02 in 0.0 W/m2 CLR
07:00 46 °F 43.9 °F 29.9 in East 3.5 mph 3.5 mph 92 % 0.02 in 0.0 W/m2 CLR
07:05 46 °F 43.9 °F 29.9 in Calm     92 % 0.02 in 0.0 W/m2 CLR
07:10 46 °F 43.9 °F 29.9 in Calm     92 % 0.02 in 0.0 W/m2 CLR
07:15 46 °F 43.9 °F 29.9 in Calm     92 % 0.02 in 0.0 W/m2 CLR
07:20 45.9 °F 43.7 °F 29.9 in Calm     92 % 0.02 in 0.0 W/m2 CLR
07:25 45.9 °F 43.7 °F 29.9 in Calm     92 % 0.02 in 0.0 W/m2 CLR
07:30 45.9 °F 43.7 °F 29.9 in Calm     92 % 0.01 in 0.0 W/m2 CLR
07:35 45.9 °F 43.5 °F 29.9 in Calm     92 % 0.01 in 0.0 W/m2 CLR
07:40 45.7 °F 43.5 °F 29.9 in Calm     92 % 0.01 in 0.0 W/m2 CLR
07:45 45.7 °F 43.5 °F 29.9 in Calm     92 % 0.01 in 0.0 W/m2 CLR
07:50 45.7 °F 43.5 °F 29.9 in Calm     92 % 0 in 0.0 W/m2 CLR
07:55 45.9 °F 43.5 °F 29.9 in Calm     92 % 0 in 0.0 W/m2 CLR
08:00 45.9 °F 43.7 °F 29.9 in SE 3.5 mph 3.5 mph 92 % 0 in 0.0 W/m2 CLR
08:05 46 °F 43.9 °F 29.9 in Calm     92 % 0 in 0.0 W/m2 OVC
08:10 46 °F 43.9 °F 29.9 in Calm     92 % 0 in 0.0 W/m2 OVC
08:15 46.2 °F 44.1 °F 29.9 in Calm     92 % 0 in 0.0 W/m2 OVC
08:20 46.2 °F 44.1 °F 29.9 in Calm     92 % 0.01 in 0.0 W/m2 RA
08:25 46.2 °F 44.1 °F 29.9 in Calm     92 % 0.01 in 0.0 W/m2
08:35 46.4 °F 44.2 °F 29.9 in Calm     92 % 0.01 in 9.0 W/m2 BKN
08:40 46.6 °F 44.4 °F 29.9 in Calm     92 % 0.01 in 11.0 W/m2 BKN
08:45 46.6 °F 44.4 °F 29.9 in East 6.9 mph 6.9 mph 92 % 0.01 in 7.0 W/m2 BKN
08:50 46.8 °F 44.2 °F 29.9 in ESE 3.5 mph 3.5 mph 91 % 0.01 in 14.0 W/m2 BKN
08:55 46.8 °F 44.2 °F 29.9 in ESE 3.5 mph 3.5 mph 91 % 0.01 in 30.0 W/m2 BKN
09:00 46.8 °F 44.2 °F 29.9 in Calm     91 % 0.01 in 28.0 W/m2 BKN
09:05 46.8 °F 44.2 °F 29.9 in Calm     91 % 0.01 in 25.0 W/m2 BKN
09:10 46.8 °F 44.2 °F 29.9 in Calm     91 % 0.01 in 30.0 W/m2 BKN
09:15 46.6 °F 44.1 °F 29.9 in SE 4 mph 4 mph 91 % 0.01 in 39.0 W/m2 BKN
09:20 46.8 °F 44.2 °F 29.9 in SE 5.8 mph 5.8 mph 91 % 0 in 30.0 W/m2 BKN
09:25 47.1 °F 44.6 °F 29.9 in SSE 4.6 mph 4.6 mph 91 % 0 in 56.0 W/m2 BKN
09:30 47.3 °F 44.4 °F 29.9 in Calm     90 % 0 in 69.0 W/m2 SCT
09:35 47.5 °F 44.8 °F 29.9 in SSE 6.9 mph 6.9 mph 90 % 0 in 114.0 W/m2 FEW
09:40 47.8 °F 44.8 °F 29.9 in SE 3.5 mph 3.5 mph 89 % 0 in 74.0 W/m2 CLR
09:45 47.8 °F 44.8 °F 29.9 in SE 2.3 mph 2.3 mph 89 % 0 in 70.0 W/m2 CLR
09:50 47.7 °F 44.6 °F 29.9 in ESE 3.5 mph 3.5 mph 89 % 0 in 69.0 W/m2 FEW
09:55 47.8 °F 44.8 °F 29.9 in SE 4.6 mph 4.6 mph 89 % 0 in 58.0 W/m2 FEW
10:00 48 °F 44.8 °F 29.9 in SSE 5.8 mph 5.8 mph 88 % 0 in 53.0 W/m2 SCT
10:05 48.4 °F 44.8 °F 29.9 in Calm     87 % 0 in 56.0 W/m2 SCT
10:10 48.6 °F 44.6 °F 29.9 in Calm     86 % 0 in 60.0 W/m2 SCT
10:15 48.7 °F 44.4 °F 29.9 in Calm     85 % 0 in 67.0 W/m2 SCT
10:20 48.7 °F 44.4 °F 29.9 in SE 2.3 mph 2.3 mph 85 % 0 in 65.0 W/m2 SCT
10:25 48.7 °F 44.2 °F 29.9 in SE 4.6 mph 4.6 mph 84 % 0 in 62.0 W/m2 SCT
10:30 48.9 °F 44.2 °F 29.9 in Calm     84 % 0 in 60.0 W/m2 SCT
10:35 48.9 °F 44.2 °F 29.9 in Calm     84 % 0 in 67.0 W/m2 SCT
10:40 48.9 °F 44.1 °F 29.9 in SE 3.5 mph 3.5 mph 83 % 0 in 79.0 W/m2 FEW
10:46 49.1 °F 44.2 °F 29.9 in SSE 8.1 mph 8.1 mph 83 % 0 in 88.0 W/m2 FEW
10:51 49.3 °F 44.4 °F 29.9 in SE 8.1 mph 8.1 mph 83 % 0 in 74.0 W/m2 FEW
10:56 49.5 °F 44.1 °F 29.9 in SE 11.5 mph 11.5 mph 82 % 0 in 54.0 W/m2 FEW
11:01 49.5 °F 44.1 °F 29.9 in SE 5.8 mph 5.8 mph 82 % 0 in 53.0 W/m2 SCT
11:06 49.5 °F 44.1 °F 29.9 in SE 6 mph 6 mph 82 % 0 in 54.0 W/m2 SCT
11:10 49.5 °F 44.1 °F 29.9 in SE 8.1 mph 8.1 mph 82 % 0 in 58.0 W/m2 SCT
11:16 49.5 °F 44.1 °F 29.9 in SSE 10.4 mph 10.4 mph 82 % 0 in 81.0 W/m2 SCT
11:20 49.6 °F 44.2 °F 29.9 in SE 9.2 mph 9.2 mph 82 % 0 in 102.0 W/m2 FEW
11:25 49.8 °F 44.2 °F 29.9 in SE 5.8 mph 5.8 mph 81 % 0 in 84.0 W/m2 CLR
11:30 49.8 °F 44.2 °F 29.9 in SE 3.5 mph 3.5 mph 81 % 0 in 77.0 W/m2 CLR
11:35 49.8 °F 44.2 °F 29.9 in Calm     81 % 0 in 72.0 W/m2 FEW
11:40 49.8 °F 44.2 °F 29.9 in Calm     81 % 0 in 72.0 W/m2 FEW
11:45 50 °F 44.4 °F 29.9 in Calm     81 % 0 in 88.0 W/m2 FEW
11:50 50 °F 44.4 °F 29.9 in Calm     81 % 0 in 172.0 W/m2 CLR
11:55 50.2 °F 44.6 °F 29.9 in Calm     81 % 0 in 172.0 W/m2 CLR
12:00 50.5 °F 44.6 °F 29.9 in Calm     80 % 0 in 128.0 W/m2 CLR
12:05 50.7 °F 44.4 °F 29.9 in Calm     79 % 0 in 118.0 W/m2 CLR
12:11 50.9 °F 44.6 °F 29.9 in Calm     79 % 0 in 88.0 W/m2 CLR
12:16 51.1 °F 44.8 °F 29.9 in NW 1.2 mph   79 % 0 in 77.0 W/m2 CLR
12:21 51.1 °F 44.8 °F 29.9 in Calm     79 % 0 in 72.0 W/m2 FEW
12:26 51.1 °F 44.4 °F 29.9 in ENE 4.6 mph   78 % 0 in 93.0 W/m2 FEW
12:31 51.1 °F 44.4 °F 29.9 in ENE 3 mph 3 mph 78 % 0 in 93.0 W/m2 CLR
12:36 51.3 °F 44.8 °F 29.9 in SSE 4.6 mph   78 % 0 in 81.0 W/m2 CLR
12:41 51.6 °F 44.6 °F 29.9 in Calm     77 % 0 in 72.0 W/m2 FEW
12:46 51.8 °F 44.4 °F 29.9 in Calm     76 % 0 in 51.0 W/m2 FEW
12:51 52 °F 44.2 °F 29.9 in SSE 6 mph 6 mph 75 % 0 in 44.0 W/m2 SCT
12:56 52.2 °F 44.4 °F 29.9 in SSE 5.8 mph 5.8 mph 75 % 0 in 56.0 W/m2 SCT
13:01 52.2 °F 44.4 °F 29.9 in South 3.5 mph 3.5 mph 75 % 0 in 76.0 W/m2 SCT
13:06 52.2 °F 44.4 °F 29.9 in South 3 mph 3 mph 75 % 0 in 88.0 W/m2 FEW
13:11 52.2 °F 44.4 °F 29.9 in SSE 3.5 mph 3.5 mph 75 % 0 in 95.0 W/m2 FEW
13:16 52.2 °F 45 °F 29.9 in SE 4.6 mph 4.6 mph 76 % 0 in 113.0 W/m2 CLR
13:21 52.2 °F 45 °F 29.9 in SE 4.6 mph 4.6 mph 76 % 0 in 153.0 W/m2 CLR
13:26 52.3 °F 45.3 °F 29.9 in ESE 3.5 mph 3.5 mph 77 % 0 in 199.0 W/m2 CLR
13:31 52.3 °F 45.3 °F 29.9 in ESE 8.1 mph 8.1 mph 77 % 0 in 183.0 W/m2 CLR
13:36 52.5 °F 45.5 °F 29.8 in ESE 6.9 mph 6.9 mph 77 % 0 in 183.0 W/m2 CLR
13:41 52.5 °F 45.5 °F 29.8 in ESE 6.9 mph 6.9 mph 77 % 0 in 186.0 W/m2 CLR
13:46 52.5 °F 45.9 °F 29.8 in ESE 3.5 mph 3.5 mph 78 % 0 in 207.0 W/m2 CLR
13:51 52.5 °F 45.5 °F 29.8 in SE 10.4 mph 10.4 mph 77 % 0 in 306.0 W/m2 CLR
13:56 52.5 °F 45.9 °F 29.8 in SE 4.6 mph 4.6 mph 78 % 0 in 236.0 W/m2 CLR
14:01 52.3 °F 46 °F 29.8 in ESE 6 mph 6 mph 79 % 0 in 230.0 W/m2 CLR
14:06 52.2 °F 45.9 °F 29.8 in ESE 6 mph 6 mph 79 % 0 in 225.0 W/m2 CLR
14:11 52.2 °F 46 °F 29.8 in ESE 6.9 mph 6.9 mph 80 % 0 in 234.0 W/m2 CLR
14:16 52 °F 46.2 °F 29.8 in ESE 8.1 mph 8.1 mph 81 % 0 in 241.0 W/m2 CLR
14:21 52 °F 46.2 °F 29.8 in SE 11.5 mph 11.5 mph 81 % 0 in 225.0 W/m2 CLR
14:26 52.2 °F 46.4 °F 29.8 in ESE 8.1 mph 8.1 mph 81 % 0 in 301.0 W/m2 CLR
14:31 52.3 °F 47.1 °F 29.8 in ESE 5.8 mph 5.8 mph 82 % 0 in 352.0 W/m2 CLR
14:36 52.7 °F 46.9 °F 29.8 in ESE 5.8 mph 5.8 mph 81 % 0 in 355.0 W/m2 CLR
14:41 52.9 °F 47.1 °F 29.8 in ESE 5.8 mph 5.8 mph 81 % 0 in 336.0 W/m2 CLR
14:46 52.9 °F 46.9 °F 29.8 in ESE 8.1 mph 8.1 mph 80 % 0 in 272.0 W/m2 CLR
14:51 53.1 °F 46.9 °F 29.8 in SE 5.8 mph 5.8 mph 80 % 0 in 334.0 W/m2 CLR
14:56 53.1 °F 47.1 °F 29.8 in ESE 10.4 mph 10.4 mph 80 % 0 in 301.0 W/m2 CLR
15:01 53.1 °F 46.9 °F 29.8 in ESE 9.2 mph 9.2 mph 80 % 0 in 413.0 W/m2 CLR
15:06 53.6 °F 47.7 °F 29.8 in ESE 8.1 mph 8.1 mph 80 % 0 in 325.0 W/m2 CLR
15:11 53.4 °F 46.9 °F 29.8 in ESE 6.9 mph 6.9 mph 79 % 0 in 301.0 W/m2 CLR
15:16 53.6 °F 47.1 °F 29.8 in ESE 6.9 mph 6.9 mph 79 % 0 in 237.0 W/m2 CLR
15:21 53.6 °F 46.6 °F 29.8 in SE 8.1 mph 8.1 mph 77 % 0 in 218.0 W/m2 CLR
15:26 53.6 °F 46.9 °F 29.8 in ESE 8.1 mph 8.1 mph 78 % 0 in 227.0 W/m2 CLR
15:31 53.6 °F 46.6 °F 29.8 in ESE 6.9 mph 6.9 mph 77 % 0 in 229.0 W/m2 CLR
15:36 53.8 °F 46.9 °F 29.8 in ESE 4 mph 4 mph 78 % 0 in 278.0 W/m2 CLR
15:41 53.8 °F 47.3 °F 29.8 in East 3.5 mph   79 % 0 in 262.0 W/m2 CLR
15:46 54 °F 47.5 °F 29.8 in ESE 4.6 mph 4.6 mph 79 % 0 in 262.0 W/m2 CLR
15:51 54.1 °F 47.1 °F 29.8 in East 4.6 mph 4.6 mph 77 % 0 in 241.0 W/m2 CLR
15:56 54.3 °F 46.9 °F 29.8 in Calm     76 % 0 in 221.0 W/m2 CLR
16:01 54.7 °F 47.3 °F 29.8 in Calm     76 % 0 in 251.0 W/m2 CLR
16:06 54.9 °F 47.8 °F 29.8 in East 1.2 mph 1.2 mph 77 % 0 in 134.0 W/m2 CLR
16:16 54.7 °F 48 °F 29.8 in Calm     78 % 0 in 250.0 W/m2 CLR
16:21 54.7 °F 48 °F 29.8 in Calm     78 % 0 in 185.0 W/m2 CLR
16:26 54.7 °F 47.7 °F 29.8 in Calm     77 % 0 in 116.0 W/m2 CLR
16:31 54.7 °F 47.3 °F 29.8 in Calm     76 % 0 in 90.0 W/m2 CLR
16:36 54.5 °F 47.1 °F 29.8 in Calm     76 % 0 in 72.0 W/m2 CLR
16:41 54.5 °F 45 °F 29.8 in SE 5.8 mph 5.8 mph 70 % 0 in 62.0 W/m2 FEW
16:46 54.7 °F 44.2 °F 29.8 in SSE 5.8 mph 5.8 mph 68 % 0 in 54.0 W/m2 SCT
16:51 54.7 °F 44.1 °F 29.8 in SSE 7 mph 7 mph 67 % 0 in 54.0 W/m2 SCT
16:56 54.7 °F 44.1 °F 29.8 in SSE 3.5 mph 3.5 mph 67 % 0 in 111.0 W/m2 SCT
17:01 54.9 °F 44.1 °F 29.8 in SSE 6.9 mph 6.9 mph 67 % 0 in 127.0 W/m2 FEW
17:06 54.7 °F 44.1 °F 29.8 in SSE 5 mph 5 mph 67 % 0 in 93.0 W/m2 CLR
17:11 54.5 °F 44.2 °F 29.8 in SSE 7 mph 7 mph 68 % 0 in 67.0 W/m2 FEW
17:16 54.1 °F 43.9 °F 29.8 in SSE 5.8 mph 5.8 mph 68 % 0 in 63.0 W/m2 SCT
17:22 54.1 °F 43.9 °F 29.8 in SSE 5.8 mph 5.8 mph 68 % 0 in 60.0 W/m2 SCT
17:26 54 °F 43.7 °F 29.8 in SSE 12 mph 12 mph 68 % 0 in 49.0 W/m2 SCT
17:32 54 °F 43.5 °F 29.8 in SSE 7 mph 7 mph 68 % 0 in 42.0 W/m2 BKN
17:37 53.6 °F 43.7 °F 29.8 in SSE 5 mph 5 mph 69 % 0 in 33.0 W/m2 BKN
17:47 53.2 °F 43.3 °F 29.8 in SSE 4.6 mph 4.9 mph 69 % 0 in 23.0 W/m2 BKN
17:52 53.1 °F 43.5 °F 29.8 in SSE 8.1 mph 8.1 mph 70 % 0 in 18.0 W/m2 BKN
17:57 52.9 °F 43.7 °F 29.8 in SSE 3.5 mph 3.5 mph 71 % 0 in 12.0 W/m2 BKN
18:02 52.5 °F 43.3 °F 29.8 in SE 3.5 mph 3.5 mph 71 % 0 in 7.0 W/m2 BKN
18:07 52.2 °F 43.7 °F 29.8 in SE 6 mph 6 mph 73 % 0 in 0.0 W/m2 OVC
18:12 52 °F 43.9 °F 29.8 in SSE 6.9 mph 6.9 mph 74 % 0 in 0.0 W/m2 OVC
18:17 51.8 °F 43.9 °F 29.8 in SSE 8.1 mph 8.1 mph 74 % 0 in 0.0 W/m2 OVC
18:22 51.6 °F 44.1 °F 29.8 in SE 8.1 mph 8.1 mph 75 % 0 in 0.0 W/m2 CLR
18:27 51.4 °F 43.9 °F 29.8 in SE 3.5 mph 3.7 mph 75 % 0 in 0.0 W/m2 CLR
18:32 51.3 °F 44.1 °F 29.8 in SSE 4.6 mph 4.6 mph 76 % 0 in 0.0 W/m2 CLR
18:37 51.1 °F 43.7 °F 29.8 in SSE 3.5 mph 3.5 mph 76 % 0 in 0.0 W/m2 CLR
18:42 50.9 °F 43.5 °F 29.8 in SE 9.2 mph 9.2 mph 76 % 0 in 0.0 W/m2 CLR
18:47 50.5 °F 43.7 °F 29.8 in SE 5 mph 5 mph 77 % 0 in 0.0 W/m2 CLR
18:52 50.2 °F 43.5 °F 29.8 in SE 5.8 mph 5.8 mph 78 % 0 in 0.0 W/m2 CLR
18:57 50 °F 43.7 °F 29.8 in SE 4.6 mph 4.6 mph 79 % 0 in 0.0 W/m2 CLR
19:02 49.8 °F 43.5 °F 29.8 in SE 6 mph 6 mph 79 % 0 in 0.0 W/m2 CLR
19:07 49.6 °F 43.9 °F 29.8 in SE 6.9 mph 6.9 mph 80 % 0 in 0.0 W/m2 CLR
19:12 49.6 °F 43.7 °F 29.8 in SE 6.9 mph 6.9 mph 80 % 0 in 0.0 W/m2 CLR
19:17 49.5 °F 43.5 °F 29.8 in SE 4.6 mph 4.6 mph 80 % 0 in 0.0 W/m2 CLR
19:22 49.5 °F 43.5 °F 29.8 in Calm     80 % 0 in 0.0 W/m2 CLR
19:27 49.3 °F 43.5 °F 29.8 in Calm     81 % 0 in 0.0 W/m2 CLR
19:32 48.9 °F 43.3 °F 29.8 in Calm     81 % 0 in 0.0 W/m2 CLR
19:37 48.7 °F 43.2 °F 29.8 in Calm     81 % 0 in 0.0 W/m2 CLR
19:42 48.4 °F 42.8 °F 29.8 in Calm     81 % 0 in 0.0 W/m2 CLR
19:47 47.8 °F 42.6 °F 29.8 in Calm     82 % 0 in 0.0 W/m2 CLR
19:52 47.5 °F 43 °F 29.8 in Calm     84 % 0 in 0.0 W/m2 CLR
19:57 47.3 °F 42.6 °F 29.8 in Calm     84 % 0 in 0.0 W/m2 CLR
20:02 47.1 °F 42.6 °F 29.8 in Calm     84 % 0 in 0.0 W/m2 CLR
20:07 47.1 °F 42.8 °F 29.8 in Calm     85 % 0 in 0.0 W/m2 CLR
20:12 46.6 °F 42.1 °F 29.8 in Calm     84 % 0 in 0.0 W/m2 CLR
20:17 46 °F 41.7 °F 29.8 in Calm     85 % 0 in 0.0 W/m2 CLR
20:22 45.7 °F 41.4 °F 29.8 in Calm     85 % 0 in 0.0 W/m2 CLR
20:27 45.5 °F 41.5 °F 29.8 in Calm     86 % 0 in 0.0 W/m2 CLR
20:32 45.3 °F 41.7 °F 29.8 in Calm     87 % 0 in 0.0 W/m2 CLR
20:37 44.6 °F 40.6 °F 29.8 in Calm     86 % 0 in 0.0 W/m2 CLR
20:42 44.1 °F 40.3 °F 29.8 in Calm     86 % 0 in 0.0 W/m2 CLR
20:47 43.9 °F 40.3 °F 29.8 in Calm     87 % 0 in 0.0 W/m2 CLR
20:52 43.3 °F 40.1 °F 29.8 in Calm     88 % 0 in 0.0 W/m2 CLR
20:57 43.3 °F 40.3 °F 29.8 in Calm     89 % 0 in 0.0 W/m2 CLR
21:02 43.2 °F 40.1 °F 29.8 in Calm     89 % 0 in 0.0 W/m2 CLR
21:07 43 °F 39.9 °F 29.8 in Calm     89 % 0 in 0.0 W/m2 CLR
21:12 43 °F 40.3 °F 29.8 in Calm     90 % 0 in 0.0 W/m2 CLR
21:17 43 °F 39.9 °F 29.9 in Calm     89 % 0 in 0.0 W/m2 CLR
21:22 42.4 °F 39.4 °F 29.9 in Calm     89 % 0 in 0.0 W/m2 CLR
21:27 42.3 °F 39.6 °F 29.9 in Calm     90 % 0 in 0.0 W/m2 CLR
21:32 42.3 °F 39.6 °F 29.9 in Calm     90 % 0 in 0.0 W/m2 CLR
21:37 42.3 °F 39.6 °F 29.9 in WNW 3.5 mph 3.5 mph 90 % 0 in 0.0 W/m2 CLR
21:42 44.1 °F 41.9 °F 29.9 in West 5.8 mph 5.8 mph 92 % 0 in 0.0 W/m2 CLR
21:47 44.2 °F 41.5 °F 29.9 in Calm     90 % 0 in 0.0 W/m2 CLR
21:52 44.2 °F 41.5 °F 29.9 in WSW 3 mph 3 mph 90 % 0 in 0.0 W/m2 CLR
21:57 44.2 °F 41.5 °F 29.9 in Calm     90 % 0 in 0.0 W/m2 CLR
22:02 44.6 °F 41.7 °F 29.9 in Calm     90 % 0 in 0.0 W/m2 CLR
22:07 44.8 °F 42.1 °F 29.9 in Calm     90 % 0 in 0.0 W/m2 CLR
22:12 44.6 °F 41.5 °F 29.9 in Calm     89 % 0 in 0.0 W/m2 CLR
22:17 44.8 °F 41.7 °F 29.9 in Calm     89 % 0 in 0.0 W/m2 CLR
22:22 44.8 °F 41.7 °F 29.9 in Calm     89 % 0 in 0.0 W/m2 CLR
22:27 44.8 °F 41.7 °F 29.9 in Calm     89 % 0 in 0.0 W/m2 CLR
22:32 44.8 °F 41.7 °F 29.9 in Calm     89 % 0 in 0.0 W/m2 CLR
22:37 44.8 °F 41.7 °F 29.9 in Calm     89 % 0 in 0.0 W/m2 CLR
22:42 44.8 °F 41.7 °F 29.9 in Calm     89 % 0 in 0.0 W/m2 CLR
22:47 45.9 °F 42.6 °F 29.9 in West 9.2 mph 9.2 mph 89 % 0 in 0.0 W/m2 CLR
22:52 46.9 °F 43 °F 29.9 in West 10.4 mph 10.4 mph 86 % 0 in 0.0 W/m2 CLR
22:57 47.3 °F 42.6 °F 29.9 in West 11.5 mph 11.5 mph 84 % 0 in 0.0 W/m2 CLR
23:02 47.5 °F 42.3 °F 29.9 in WNW 8.1 mph 8.1 mph 82 % 0 in 0.0 W/m2 CLR
23:07 47.5 °F 42.1 °F 29.9 in WNW 13.8 mph 13.8 mph 81 % 0 in 0.0 W/m2 CLR
23:12 47.7 °F 41.7 °F 29.9 in West 17.3 mph 17.3 mph 80 % 0 in 0.0 W/m2 CLR
23:18 47.7 °F 41.7 °F 29.9 in West 13.8 mph 13.8 mph 80 % 0 in 0.0 W/m2 CLR
23:23 47.7 °F 42.4 °F 29.9 in West 13.8 mph 13.8 mph 82 % 0 in 0.0 W/m2 CLR
23:28 47.5 °F 42.6 °F 29.9 in West 14 mph 14 mph 83 % 0 in 0.0 W/m2 CLR
23:33 47.5 °F 43.2 °F 29.9 in WNW 13.8 mph 13.8 mph 85 % 0 in 0.0 W/m2 CLR
23:38 47.3 °F 43.3 °F 29.9 in WNW 14 mph 14 mph 86 % 0 in 0.0 W/m2 CLR
23:43 47.1 °F 43.2 °F 29.9 in WNW 13.8 mph 13.8 mph 86 % 0 in 0.0 W/m2 CLR
23:49 47.1 °F 43.2 °F 29.9 in WNW 15 mph 15 mph 86 % 0 in 0.0 W/m2 CLR
23:54 46.9 °F 43 °F 29.9 in WNW 15 mph 15 mph 86 % 0 in 0.0 W/m2 CLR
23:55 46.9 °F 43 °F 29.9 in WNW 17.3 mph 17.3 mph 86 % 0 in 0.0 W/m2 CLR
23:58 46.9 °F 43 °F 29.9 in WNW 16.1 mph 16.1 mph 86 % 0 in 0.0 W/m2 CLR
Lo Temps de Massalio
Compliments of Weather Underground - 1.25 mb